sensor_id;sensor_type;location;lat;lon;timestamp;P1;durP1;ratioP1;P2;durP2;ratioP2
67798;SDS011;54596;43.216;27.904;2023-11-18T00:02:16;19.15;;;14.55;;
67798;SDS011;54596;43.216;27.904;2023-11-18T00:04:41;20.92;;;14.48;;
67798;SDS011;54596;43.216;27.904;2023-11-18T00:07:07;20.50;;;13.95;;
67798;SDS011;54596;43.216;27.904;2023-11-18T00:09:32;19.05;;;13.75;;
67798;SDS011;54596;43.216;27.904;2023-11-18T00:11:58;17.90;;;13.57;;
67798;SDS011;54596;43.216;27.904;2023-11-18T00:14:23;19.00;;;12.85;;
67798;SDS011;54596;43.216;27.904;2023-11-18T00:16:49;19.45;;;12.85;;
67798;SDS011;54596;43.216;27.904;2023-11-18T00:19:14;16.55;;;11.85;;
67798;SDS011;54596;43.216;27.904;2023-11-18T00:21:40;17.48;;;11.80;;
67798;SDS011;54596;43.216;27.904;2023-11-18T00:24:06;15.45;;;10.65;;
67798;SDS011;54596;43.216;27.904;2023-11-18T00:26:33;16.10;;;9.93;;
67798;SDS011;54596;43.216;27.904;2023-11-18T00:28:59;15.40;;;10.18;;
67798;SDS011;54596;43.216;27.904;2023-11-18T00:31:25;19.35;;;12.32;;
67798;SDS011;54596;43.216;27.904;2023-11-18T00:33:51;21.77;;;15.48;;
67798;SDS011;54596;43.216;27.904;2023-11-18T00:36:17;26.98;;;19.20;;
67798;SDS011;54596;43.216;27.904;2023-11-18T00:38:43;26.15;;;19.70;;
67798;SDS011;54596;43.216;27.904;2023-11-18T00:41:08;28.63;;;20.38;;
67798;SDS011;54596;43.216;27.904;2023-11-18T00:43:34;27.58;;;20.67;;
67798;SDS011;54596;43.216;27.904;2023-11-18T00:45:59;26.67;;;19.58;;
67798;SDS011;54596;43.216;27.904;2023-11-18T00:48:26;27.25;;;20.05;;
67798;SDS011;54596;43.216;27.904;2023-11-18T00:50:52;25.35;;;18.27;;
67798;SDS011;54596;43.216;27.904;2023-11-18T00:53:17;24.17;;;17.08;;
67798;SDS011;54596;43.216;27.904;2023-11-18T00:55:43;22.15;;;16.15;;
67798;SDS011;54596;43.216;27.904;2023-11-18T00:58:09;21.83;;;15.35;;
67798;SDS011;54596;43.216;27.904;2023-11-18T01:00:34;20.48;;;15.15;;
67798;SDS011;54596;43.216;27.904;2023-11-18T01:03:01;18.10;;;12.85;;
67798;SDS011;54596;43.216;27.904;2023-11-18T01:05:28;18.30;;;12.68;;
67798;SDS011;54596;43.216;27.904;2023-11-18T01:07:57;16.75;;;12.25;;
67798;SDS011;54596;43.216;27.904;2023-11-18T01:10:22;14.85;;;10.75;;
67798;SDS011;54596;43.216;27.904;2023-11-18T01:12:48;15.68;;;9.88;;
67798;SDS011;54596;43.216;27.904;2023-11-18T01:15:13;14.27;;;9.55;;
67798;SDS011;54596;43.216;27.904;2023-11-18T01:17:39;13.27;;;9.13;;
67798;SDS011;54596;43.216;27.904;2023-11-18T01:20:05;14.02;;;8.48;;
67798;SDS011;54596;43.216;27.904;2023-11-18T01:22:36;13.32;;;8.68;;
67798;SDS011;54596;43.216;27.904;2023-11-18T01:25:03;12.63;;;8.50;;
67798;SDS011;54596;43.216;27.904;2023-11-18T01:27:29;13.32;;;8.57;;
67798;SDS011;54596;43.216;27.904;2023-11-18T01:29:55;13.98;;;8.57;;
67798;SDS011;54596;43.216;27.904;2023-11-18T01:32:20;13.30;;;8.60;;
67798;SDS011;54596;43.216;27.904;2023-11-18T01:34:46;12.90;;;7.95;;
67798;SDS011;54596;43.216;27.904;2023-11-18T01:37:18;12.65;;;8.35;;
67798;SDS011;54596;43.216;27.904;2023-11-18T01:39:46;13.02;;;8.68;;
67798;SDS011;54596;43.216;27.904;2023-11-18T01:42:12;13.07;;;8.77;;
67798;SDS011;54596;43.216;27.904;2023-11-18T01:44:37;12.43;;;8.23;;
67798;SDS011;54596;43.216;27.904;2023-11-18T01:47:03;12.45;;;8.00;;
67798;SDS011;54596;43.216;27.904;2023-11-18T01:49:35;12.30;;;8.27;;
67798;SDS011;54596;43.216;27.904;2023-11-18T01:52:05;12.68;;;8.13;;
67798;SDS011;54596;43.216;27.904;2023-11-18T01:54:33;12.75;;;8.48;;
67798;SDS011;54596;43.216;27.904;2023-11-18T01:57:00;12.75;;;8.45;;
67798;SDS011;54596;43.216;27.904;2023-11-18T01:59:30;12.48;;;8.23;;
67798;SDS011;54596;43.216;27.904;2023-11-18T02:01:58;12.90;;;8.43;;
67798;SDS011;54596;43.216;27.904;2023-11-18T02:04:25;12.95;;;8.27;;
67798;SDS011;54596;43.216;27.904;2023-11-18T02:06:51;12.82;;;9.05;;
67798;SDS011;54596;43.216;27.904;2023-11-18T02:09:20;13.77;;;8.85;;
67798;SDS011;54596;43.216;27.904;2023-11-18T02:14:31;14.10;;;9.90;;
67798;SDS011;54596;43.216;27.904;2023-11-18T02:17:02;14.65;;;10.65;;
67798;SDS011;54596;43.216;27.904;2023-11-18T02:19:29;15.40;;;10.57;;
67798;SDS011;54596;43.216;27.904;2023-11-18T02:21:55;18.95;;;11.25;;
67798;SDS011;54596;43.216;27.904;2023-11-18T02:24:31;16.98;;;11.70;;
67798;SDS011;54596;43.216;27.904;2023-11-18T02:27:02;16.08;;;10.90;;
67798;SDS011;54596;43.216;27.904;2023-11-18T02:29:36;16.88;;;11.95;;
67798;SDS011;54596;43.216;27.904;2023-11-18T02:32:07;19.58;;;12.00;;
67798;SDS011;54596;43.216;27.904;2023-11-18T02:34:40;17.23;;;11.85;;
67798;SDS011;54596;43.216;27.904;2023-11-18T02:37:13;19.13;;;12.52;;
67798;SDS011;54596;43.216;27.904;2023-11-18T02:39:40;17.92;;;12.48;;
67798;SDS011;54596;43.216;27.904;2023-11-18T02:42:08;18.15;;;12.10;;
67798;SDS011;54596;43.216;27.904;2023-11-18T02:44:37;17.50;;;12.13;;
67798;SDS011;54596;43.216;27.904;2023-11-18T02:47:04;17.90;;;12.57;;
67798;SDS011;54596;43.216;27.904;2023-11-18T02:49:35;17.83;;;12.48;;
67798;SDS011;54596;43.216;27.904;2023-11-18T02:52:02;18.35;;;12.52;;
67798;SDS011;54596;43.216;27.904;2023-11-18T02:54:27;18.50;;;12.48;;
67798;SDS011;54596;43.216;27.904;2023-11-18T02:56:53;18.73;;;12.52;;
67798;SDS011;54596;43.216;27.904;2023-11-18T02:59:19;17.23;;;12.45;;
67798;SDS011;54596;43.216;27.904;2023-11-18T03:01:45;19.30;;;13.50;;
67798;SDS011;54596;43.216;27.904;2023-11-18T03:04:10;19.73;;;13.70;;
67798;SDS011;54596;43.216;27.904;2023-11-18T03:06:36;19.25;;;13.57;;
67798;SDS011;54596;43.216;27.904;2023-11-18T03:09:02;19.00;;;12.80;;
67798;SDS011;54596;43.216;27.904;2023-11-18T03:11:32;19.45;;;13.75;;
67798;SDS011;54596;43.216;27.904;2023-11-18T03:13:58;19.25;;;13.48;;
67798;SDS011;54596;43.216;27.904;2023-11-18T03:16:23;19.60;;;13.95;;
67798;SDS011;54596;43.216;27.904;2023-11-18T03:18:49;19.10;;;13.43;;
67798;SDS011;54596;43.216;27.904;2023-11-18T03:21:16;18.20;;;13.75;;
67798;SDS011;54596;43.216;27.904;2023-11-18T03:23:42;18.55;;;13.80;;
67798;SDS011;54596;43.216;27.904;2023-11-18T03:26:08;21.02;;;13.98;;
67798;SDS011;54596;43.216;27.904;2023-11-18T03:28:35;20.55;;;14.23;;
67798;SDS011;54596;43.216;27.904;2023-11-18T03:31:02;19.80;;;13.20;;
67798;SDS011;54596;43.216;27.904;2023-11-18T03:33:29;19.88;;;14.05;;
67798;SDS011;54596;43.216;27.904;2023-11-18T03:35:55;19.20;;;13.38;;
67798;SDS011;54596;43.216;27.904;2023-11-18T03:38:21;18.88;;;13.10;;
67798;SDS011;54596;43.216;27.904;2023-11-18T03:40:47;20.48;;;13.52;;
67798;SDS011;54596;43.216;27.904;2023-11-18T03:43:14;20.45;;;13.45;;
67798;SDS011;54596;43.216;27.904;2023-11-18T03:45:39;19.10;;;13.45;;
67798;SDS011;54596;43.216;27.904;2023-11-18T03:48:06;19.17;;;14.57;;
67798;SDS011;54596;43.216;27.904;2023-11-18T03:50:32;19.45;;;14.63;;
67798;SDS011;54596;43.216;27.904;2023-11-18T03:52:58;21.50;;;14.75;;
67798;SDS011;54596;43.216;27.904;2023-11-18T03:55:24;20.27;;;15.70;;
67798;SDS011;54596;43.216;27.904;2023-11-18T03:57:51;23.33;;;15.82;;
67798;SDS011;54596;43.216;27.904;2023-11-18T04:00:17;21.15;;;16.27;;
67798;SDS011;54596;43.216;27.904;2023-11-18T04:02:45;23.30;;;16.75;;
67798;SDS011;54596;43.216;27.904;2023-11-18T04:05:14;22.92;;;16.27;;
67798;SDS011;54596;43.216;27.904;2023-11-18T04:07:40;23.60;;;17.80;;
67798;SDS011;54596;43.216;27.904;2023-11-18T04:10:08;21.52;;;16.58;;
67798;SDS011;54596;43.216;27.904;2023-11-18T04:12:37;24.02;;;18.20;;
67798;SDS011;54596;43.216;27.904;2023-11-18T04:15:03;23.42;;;16.65;;
67798;SDS011;54596;43.216;27.904;2023-11-18T04:17:30;21.38;;;16.25;;
67798;SDS011;54596;43.216;27.904;2023-11-18T04:19:56;20.20;;;14.82;;
67798;SDS011;54596;43.216;27.904;2023-11-18T04:22:22;19.10;;;14.30;;
67798;SDS011;54596;43.216;27.904;2023-11-18T04:24:48;18.33;;;13.05;;
67798;SDS011;54596;43.216;27.904;2023-11-18T04:27:13;17.38;;;13.00;;
67798;SDS011;54596;43.216;27.904;2023-11-18T04:29:39;16.77;;;11.95;;
67798;SDS011;54596;43.216;27.904;2023-11-18T04:32:05;15.93;;;11.55;;
67798;SDS011;54596;43.216;27.904;2023-11-18T04:34:37;16.85;;;11.98;;
67798;SDS011;54596;43.216;27.904;2023-11-18T04:37:05;17.00;;;11.85;;
67798;SDS011;54596;43.216;27.904;2023-11-18T04:39:34;16.88;;;11.93;;
67798;SDS011;54596;43.216;27.904;2023-11-18T04:42:00;16.35;;;11.40;;
67798;SDS011;54596;43.216;27.904;2023-11-18T04:44:29;14.13;;;10.23;;
67798;SDS011;54596;43.216;27.904;2023-11-18T04:46:56;18.08;;;11.88;;
67798;SDS011;54596;43.216;27.904;2023-11-18T04:49:24;15.50;;;10.18;;
67798;SDS011;54596;43.216;27.904;2023-11-18T04:51:49;18.70;;;11.65;;
67798;SDS011;54596;43.216;27.904;2023-11-18T04:54:15;14.88;;;10.32;;
67798;SDS011;54596;43.216;27.904;2023-11-18T04:56:40;17.30;;;11.05;;
67798;SDS011;54596;43.216;27.904;2023-11-18T04:59:06;17.05;;;11.73;;
67798;SDS011;54596;43.216;27.904;2023-11-18T05:01:32;17.17;;;11.73;;
67798;SDS011;54596;43.216;27.904;2023-11-18T05:03:58;18.50;;;11.75;;
67798;SDS011;54596;43.216;27.904;2023-11-18T05:06:24;20.40;;;14.25;;
67798;SDS011;54596;43.216;27.904;2023-11-18T05:08:51;18.55;;;12.20;;
67798;SDS011;54596;43.216;27.904;2023-11-18T05:11:17;18.80;;;13.18;;
67798;SDS011;54596;43.216;27.904;2023-11-18T05:13:42;19.90;;;13.85;;
67798;SDS011;54596;43.216;27.904;2023-11-18T05:16:08;20.58;;;14.73;;
67798;SDS011;54596;43.216;27.904;2023-11-18T05:18:35;21.17;;;13.82;;
67798;SDS011;54596;43.216;27.904;2023-11-18T05:21:02;22.80;;;14.88;;
67798;SDS011;54596;43.216;27.904;2023-11-18T05:23:30;21.95;;;15.27;;
67798;SDS011;54596;43.216;27.904;2023-11-18T05:25:56;23.25;;;16.05;;
67798;SDS011;54596;43.216;27.904;2023-11-18T05:28:23;24.42;;;17.13;;
67798;SDS011;54596;43.216;27.904;2023-11-18T05:30:49;24.75;;;17.58;;
67798;SDS011;54596;43.216;27.904;2023-11-18T05:33:16;27.17;;;18.85;;
67798;SDS011;54596;43.216;27.904;2023-11-18T05:35:43;25.27;;;18.23;;
67798;SDS011;54596;43.216;27.904;2023-11-18T05:38:18;24.50;;;18.05;;
67798;SDS011;54596;43.216;27.904;2023-11-18T05:40:49;26.42;;;18.98;;
67798;SDS011;54596;43.216;27.904;2023-11-18T05:43:29;26.30;;;19.20;;
67798;SDS011;54596;43.216;27.904;2023-11-18T05:46:04;25.92;;;18.60;;
67798;SDS011;54596;43.216;27.904;2023-11-18T05:48:43;24.08;;;17.85;;
67798;SDS011;54596;43.216;27.904;2023-11-18T05:51:09;22.77;;;16.75;;
67798;SDS011;54596;43.216;27.904;2023-11-18T05:53:41;23.83;;;16.85;;
67798;SDS011;54596;43.216;27.904;2023-11-18T05:56:14;25.40;;;16.98;;
67798;SDS011;54596;43.216;27.904;2023-11-18T05:58:43;23.23;;;17.00;;
67798;SDS011;54596;43.216;27.904;2023-11-18T06:01:09;24.40;;;17.27;;
67798;SDS011;54596;43.216;27.904;2023-11-18T06:03:36;22.38;;;16.05;;
67798;SDS011;54596;43.216;27.904;2023-11-18T06:06:13;21.60;;;15.45;;
67798;SDS011;54596;43.216;27.904;2023-11-18T06:08:41;19.52;;;14.95;;
67798;SDS011;54596;43.216;27.904;2023-11-18T06:11:07;19.48;;;13.43;;
67798;SDS011;54596;43.216;27.904;2023-11-18T06:16:21;18.90;;;13.82;;
67798;SDS011;54596;43.216;27.904;2023-11-18T06:18:52;19.65;;;14.02;;
67798;SDS011;54596;43.216;27.904;2023-11-18T06:21:20;157.88;;;24.50;;
67798;SDS011;54596;43.216;27.904;2023-11-18T06:23:58;23.83;;;13.77;;
67798;SDS011;54596;43.216;27.904;2023-11-18T06:26:24;16.90;;;12.15;;
67798;SDS011;54596;43.216;27.904;2023-11-18T06:28:51;16.85;;;11.13;;
67798;SDS011;54596;43.216;27.904;2023-11-18T06:31:19;17.25;;;11.55;;
67798;SDS011;54596;43.216;27.904;2023-11-18T06:33:45;16.05;;;11.68;;
67798;SDS011;54596;43.216;27.904;2023-11-18T06:38:47;15.65;;;10.70;;
67798;SDS011;54596;43.216;27.904;2023-11-18T06:41:15;16.02;;;10.65;;
67798;SDS011;54596;43.216;27.904;2023-11-18T06:43:42;15.75;;;10.77;;
67798;SDS011;54596;43.216;27.904;2023-11-18T06:46:14;14.73;;;10.20;;
67798;SDS011;54596;43.216;27.904;2023-11-18T06:48:40;14.63;;;10.07;;
67798;SDS011;54596;43.216;27.904;2023-11-18T06:51:06;15.52;;;11.25;;
67798;SDS011;54596;43.216;27.904;2023-11-18T06:53:33;15.32;;;10.13;;
67798;SDS011;54596;43.216;27.904;2023-11-18T06:55:59;13.77;;;9.45;;
67798;SDS011;54596;43.216;27.904;2023-11-18T06:58:25;13.60;;;9.57;;
67798;SDS011;54596;43.216;27.904;2023-11-18T07:00:51;14.00;;;9.40;;
67798;SDS011;54596;43.216;27.904;2023-11-18T07:03:17;13.52;;;9.52;;
67798;SDS011;54596;43.216;27.904;2023-11-18T07:05:43;16.38;;;11.07;;
67798;SDS011;54596;43.216;27.904;2023-11-18T07:08:09;17.33;;;12.45;;
67798;SDS011;54596;43.216;27.904;2023-11-18T07:10:35;17.23;;;11.98;;
67798;SDS011;54596;43.216;27.904;2023-11-18T07:13:03;17.02;;;11.95;;
67798;SDS011;54596;43.216;27.904;2023-11-18T07:15:29;15.68;;;10.98;;
67798;SDS011;54596;43.216;27.904;2023-11-18T07:17:54;12.90;;;8.57;;
67798;SDS011;54596;43.216;27.904;2023-11-18T07:20:20;11.70;;;7.63;;
67798;SDS011;54596;43.216;27.904;2023-11-18T07:22:46;11.38;;;7.80;;
67798;SDS011;54596;43.216;27.904;2023-11-18T07:25:12;12.07;;;7.97;;
67798;SDS011;54596;43.216;27.904;2023-11-18T07:27:38;13.73;;;7.72;;
67798;SDS011;54596;43.216;27.904;2023-11-18T07:30:04;11.85;;;7.75;;
67798;SDS011;54596;43.216;27.904;2023-11-18T07:32:32;11.82;;;7.45;;
67798;SDS011;54596;43.216;27.904;2023-11-18T07:34:58;10.52;;;7.35;;
67798;SDS011;54596;43.216;27.904;2023-11-18T07:37:24;11.07;;;7.65;;
67798;SDS011;54596;43.216;27.904;2023-11-18T07:39:51;11.20;;;7.28;;
67798;SDS011;54596;43.216;27.904;2023-11-18T07:42:17;11.60;;;8.43;;
67798;SDS011;54596;43.216;27.904;2023-11-18T07:44:43;10.70;;;7.45;;
67798;SDS011;54596;43.216;27.904;2023-11-18T07:47:09;10.18;;;7.18;;
67798;SDS011;54596;43.216;27.904;2023-11-18T07:49:35;12.23;;;7.35;;
67798;SDS011;54596;43.216;27.904;2023-11-18T07:52:03;11.27;;;7.15;;
67798;SDS011;54596;43.216;27.904;2023-11-18T07:54:29;10.13;;;6.97;;
67798;SDS011;54596;43.216;27.904;2023-11-18T07:56:55;10.30;;;6.55;;
67798;SDS011;54596;43.216;27.904;2023-11-18T07:59:20;9.63;;;5.88;;
67798;SDS011;54596;43.216;27.904;2023-11-18T08:01:47;9.38;;;5.60;;
67798;SDS011;54596;43.216;27.904;2023-11-18T08:04:13;8.27;;;5.00;;
67798;SDS011;54596;43.216;27.904;2023-11-18T08:06:39;7.53;;;4.70;;
67798;SDS011;54596;43.216;27.904;2023-11-18T08:09:05;9.55;;;5.70;;
67798;SDS011;54596;43.216;27.904;2023-11-18T08:11:37;8.98;;;5.00;;
67798;SDS011;54596;43.216;27.904;2023-11-18T08:14:04;7.88;;;4.95;;
67798;SDS011;54596;43.216;27.904;2023-11-18T08:16:29;8.40;;;5.20;;
67798;SDS011;54596;43.216;27.904;2023-11-18T08:18:55;8.90;;;5.88;;
67798;SDS011;54596;43.216;27.904;2023-11-18T08:21:21;8.55;;;5.38;;
67798;SDS011;54596;43.216;27.904;2023-11-18T08:23:47;9.32;;;4.40;;
67798;SDS011;54596;43.216;27.904;2023-11-18T08:26:13;7.65;;;4.28;;
67798;SDS011;54596;43.216;27.904;2023-11-18T08:28:39;6.75;;;3.80;;
67798;SDS011;54596;43.216;27.904;2023-11-18T08:31:05;6.85;;;3.63;;
67798;SDS011;54596;43.216;27.904;2023-11-18T08:33:32;6.65;;;3.78;;
67798;SDS011;54596;43.216;27.904;2023-11-18T08:35:58;8.98;;;4.10;;
67798;SDS011;54596;43.216;27.904;2023-11-18T08:38:26;7.95;;;3.60;;
67798;SDS011;54596;43.216;27.904;2023-11-18T08:40:53;9.13;;;4.60;;
67798;SDS011;54596;43.216;27.904;2023-11-18T08:43:20;8.30;;;3.60;;
67798;SDS011;54596;43.216;27.904;2023-11-18T08:45:46;8.50;;;4.15;;
67798;SDS011;54596;43.216;27.904;2023-11-18T08:48:12;7.85;;;4.35;;
67798;SDS011;54596;43.216;27.904;2023-11-18T08:50:38;8.13;;;4.25;;
67798;SDS011;54596;43.216;27.904;2023-11-18T08:53:08;9.02;;;4.50;;
67798;SDS011;54596;43.216;27.904;2023-11-18T08:55:34;8.35;;;4.43;;
67798;SDS011;54596;43.216;27.904;2023-11-18T08:58:12;8.13;;;4.18;;
67798;SDS011;54596;43.216;27.904;2023-11-18T09:00:41;7.95;;;4.20;;
67798;SDS011;54596;43.216;27.904;2023-11-18T09:05:46;8.38;;;4.70;;
67798;SDS011;54596;43.216;27.904;2023-11-18T09:11:08;10.45;;;5.70;;
67798;SDS011;54596;43.216;27.904;2023-11-18T09:13:36;8.65;;;4.30;;
67798;SDS011;54596;43.216;27.904;2023-11-18T09:16:06;9.02;;;4.20;;
67798;SDS011;54596;43.216;27.904;2023-11-18T09:18:35;6.70;;;3.80;;
67798;SDS011;54596;43.216;27.904;2023-11-18T09:21:05;9.38;;;4.97;;
67798;SDS011;54596;43.216;27.904;2023-11-18T09:23:32;8.82;;;5.20;;
67798;SDS011;54596;43.216;27.904;2023-11-18T09:26:03;7.53;;;3.70;;
67798;SDS011;54596;43.216;27.904;2023-11-18T09:28:32;8.23;;;3.88;;
67798;SDS011;54596;43.216;27.904;2023-11-18T09:31:00;7.35;;;3.78;;
67798;SDS011;54596;43.216;27.904;2023-11-18T09:33:28;7.75;;;3.40;;
67798;SDS011;54596;43.216;27.904;2023-11-18T09:36:07;8.48;;;4.45;;
67798;SDS011;54596;43.216;27.904;2023-11-18T09:38:37;8.98;;;3.90;;
67798;SDS011;54596;43.216;27.904;2023-11-18T09:41:06;7.30;;;3.83;;
67798;SDS011;54596;43.216;27.904;2023-11-18T09:43:36;9.10;;;4.38;;
67798;SDS011;54596;43.216;27.904;2023-11-18T09:46:12;7.15;;;3.83;;
67798;SDS011;54596;43.216;27.904;2023-11-18T09:48:40;8.52;;;4.65;;
67798;SDS011;54596;43.216;27.904;2023-11-18T09:51:08;8.38;;;4.00;;
67798;SDS011;54596;43.216;27.904;2023-11-18T09:53:37;6.88;;;3.65;;
67798;SDS011;54596;43.216;27.904;2023-11-18T09:56:10;6.60;;;3.42;;
67798;SDS011;54596;43.216;27.904;2023-11-18T09:58:54;6.43;;;3.15;;
67798;SDS011;54596;43.216;27.904;2023-11-18T10:01:30;7.53;;;3.63;;
67798;SDS011;54596;43.216;27.904;2023-11-18T10:04:04;7.38;;;3.10;;
67798;SDS011;54596;43.216;27.904;2023-11-18T10:06:36;5.90;;;2.80;;
67798;SDS011;54596;43.216;27.904;2023-11-18T10:09:06;5.88;;;2.88;;
67798;SDS011;54596;43.216;27.904;2023-11-18T10:11:44;6.07;;;3.00;;
67798;SDS011;54596;43.216;27.904;2023-11-18T10:14:13;6.68;;;3.00;;
67798;SDS011;54596;43.216;27.904;2023-11-18T10:16:41;11.90;;;3.38;;
67798;SDS011;54596;43.216;27.904;2023-11-18T10:19:12;6.97;;;3.25;;
67798;SDS011;54596;43.216;27.904;2023-11-18T10:21:39;6.85;;;3.13;;
67798;SDS011;54596;43.216;27.904;2023-11-18T10:24:06;8.73;;;3.67;;
67798;SDS011;54596;43.216;27.904;2023-11-18T10:26:39;6.40;;;3.00;;
67798;SDS011;54596;43.216;27.904;2023-11-18T10:29:05;7.43;;;3.30;;
67798;SDS011;54596;43.216;27.904;2023-11-18T10:31:34;8.52;;;3.85;;
67798;SDS011;54596;43.216;27.904;2023-11-18T10:34:03;6.93;;;3.40;;
67798;SDS011;54596;43.216;27.904;2023-11-18T10:36:29;9.05;;;3.90;;
67798;SDS011;54596;43.216;27.904;2023-11-18T10:38:58;6.60;;;3.28;;
67798;SDS011;54596;43.216;27.904;2023-11-18T10:41:26;8.68;;;4.28;;
67798;SDS011;54596;43.216;27.904;2023-11-18T10:44:04;7.75;;;3.75;;
67798;SDS011;54596;43.216;27.904;2023-11-18T10:46:32;8.65;;;3.75;;
67798;SDS011;54596;43.216;27.904;2023-11-18T10:48:57;6.93;;;3.55;;
67798;SDS011;54596;43.216;27.904;2023-11-18T10:51:23;8.57;;;3.97;;
67798;SDS011;54596;43.216;27.904;2023-11-18T10:53:52;8.80;;;3.28;;
67798;SDS011;54596;43.216;27.904;2023-11-18T10:56:25;7.63;;;3.40;;
67798;SDS011;54596;43.216;27.904;2023-11-18T10:58:57;9.45;;;4.13;;
67798;SDS011;54596;43.216;27.904;2023-11-18T11:01:35;10.50;;;4.35;;
67798;SDS011;54596;43.216;27.904;2023-11-18T11:04:09;9.23;;;3.60;;
67798;SDS011;54596;43.216;27.904;2023-11-18T11:06:35;7.03;;;3.17;;
67798;SDS011;54596;43.216;27.904;2023-11-18T11:09:25;10.27;;;3.80;;
67798;SDS011;54596;43.216;27.904;2023-11-18T11:14:25;9.63;;;5.75;;
67798;SDS011;54596;43.216;27.904;2023-11-18T11:17:00;9.05;;;4.10;;
67798;SDS011;54596;43.216;27.904;2023-11-18T11:19:42;8.63;;;4.25;;
67798;SDS011;54596;43.216;27.904;2023-11-18T11:22:21;8.10;;;4.20;;
67798;SDS011;54596;43.216;27.904;2023-11-18T11:25:19;8.25;;;4.10;;
67798;SDS011;54596;43.216;27.904;2023-11-18T11:27:59;8.13;;;4.00;;
67798;SDS011;54596;43.216;27.904;2023-11-18T11:30:42;8.50;;;3.90;;
67798;SDS011;54596;43.216;27.904;2023-11-18T11:33:14;8.15;;;4.38;;
67798;SDS011;54596;43.216;27.904;2023-11-18T11:35:55;7.40;;;3.95;;
67798;SDS011;54596;43.216;27.904;2023-11-18T11:38:25;7.70;;;3.80;;
67798;SDS011;54596;43.216;27.904;2023-11-18T11:40:51;7.53;;;3.70;;
67798;SDS011;54596;43.216;27.904;2023-11-18T11:43:20;7.45;;;3.30;;
67798;SDS011;54596;43.216;27.904;2023-11-18T11:45:53;6.85;;;3.33;;
67798;SDS011;54596;43.216;27.904;2023-11-18T11:48:21;8.80;;;4.20;;
67798;SDS011;54596;43.216;27.904;2023-11-18T11:53:40;7.93;;;3.50;;
67798;SDS011;54596;43.216;27.904;2023-11-18T11:56:11;7.57;;;3.17;;
67798;SDS011;54596;43.216;27.904;2023-11-18T11:58:46;6.68;;;3.17;;
67798;SDS011;54596;43.216;27.904;2023-11-18T12:01:26;6.47;;;2.88;;
67798;SDS011;54596;43.216;27.904;2023-11-18T12:04:00;6.88;;;2.92;;
67798;SDS011;54596;43.216;27.904;2023-11-18T12:06:32;7.15;;;2.60;;
67798;SDS011;54596;43.216;27.904;2023-11-18T12:09:00;6.63;;;2.97;;
67798;SDS011;54596;43.216;27.904;2023-11-18T12:11:32;7.30;;;3.10;;
67798;SDS011;54596;43.216;27.904;2023-11-18T12:14:03;7.40;;;3.20;;
67798;SDS011;54596;43.216;27.904;2023-11-18T12:16:57;5.70;;;2.80;;
67798;SDS011;54596;43.216;27.904;2023-11-18T12:19:32;5.68;;;2.72;;
67798;SDS011;54596;43.216;27.904;2023-11-18T12:22:10;7.30;;;2.90;;
67798;SDS011;54596;43.216;27.904;2023-11-18T12:24:42;8.45;;;3.40;;
67798;SDS011;54596;43.216;27.904;2023-11-18T12:27:09;8.00;;;3.80;;
67798;SDS011;54596;43.216;27.904;2023-11-18T12:29:41;8.63;;;3.03;;
67798;SDS011;54596;43.216;27.904;2023-11-18T12:32:08;9.52;;;3.67;;
67798;SDS011;54596;43.216;27.904;2023-11-18T12:34:53;7.85;;;3.08;;
67798;SDS011;54596;43.216;27.904;2023-11-18T12:48:26;9.15;;;3.40;;
67798;SDS011;54596;43.216;27.904;2023-11-18T12:50:57;9.68;;;3.47;;
67798;SDS011;54596;43.216;27.904;2023-11-18T12:53:24;9.32;;;4.03;;
67798;SDS011;54596;43.216;27.904;2023-11-18T12:55:50;7.53;;;2.63;;
67798;SDS011;54596;43.216;27.904;2023-11-18T12:58:17;8.45;;;3.45;;
67798;SDS011;54596;43.216;27.904;2023-11-18T13:00:43;7.15;;;2.40;;
67798;SDS011;54596;43.216;27.904;2023-11-18T13:03:10;7.68;;;2.03;;
67798;SDS011;54596;43.216;27.904;2023-11-18T13:05:36;7.07;;;1.70;;
67798;SDS011;54596;43.216;27.904;2023-11-18T13:08:03;5.90;;;1.88;;
67798;SDS011;54596;43.216;27.904;2023-11-18T13:10:29;5.03;;;1.85;;
67798;SDS011;54596;43.216;27.904;2023-11-18T13:12:55;5.25;;;1.90;;
67798;SDS011;54596;43.216;27.904;2023-11-18T13:15:20;5.13;;;2.00;;
67798;SDS011;54596;43.216;27.904;2023-11-18T13:17:59;4.90;;;2.20;;
67798;SDS011;54596;43.216;27.904;2023-11-18T13:20:26;4.60;;;1.90;;
67798;SDS011;54596;43.216;27.904;2023-11-18T13:22:52;7.93;;;2.30;;
67798;SDS011;54596;43.216;27.904;2023-11-18T13:25:21;3.70;;;1.50;;
67798;SDS011;54596;43.216;27.904;2023-11-18T13:27:48;7.72;;;1.80;;
67798;SDS011;54596;43.216;27.904;2023-11-18T13:30:14;7.05;;;2.60;;
67798;SDS011;54596;43.216;27.904;2023-11-18T13:32:42;4.38;;;1.75;;
67798;SDS011;54596;43.216;27.904;2023-11-18T13:35:08;4.00;;;2.05;;
67798;SDS011;54596;43.216;27.904;2023-11-18T13:37:36;6.63;;;1.92;;
67798;SDS011;54596;43.216;27.904;2023-11-18T13:40:01;5.20;;;2.00;;
67798;SDS011;54596;43.216;27.904;2023-11-18T13:42:31;3.88;;;1.70;;
67798;SDS011;54596;43.216;27.904;2023-11-18T13:45:11;4.22;;;1.70;;
67798;SDS011;54596;43.216;27.904;2023-11-18T13:47:40;7.00;;;2.00;;
67798;SDS011;54596;43.216;27.904;2023-11-18T13:52:39;12.93;;;2.03;;
67798;SDS011;54596;43.216;27.904;2023-11-18T13:55:07;5.57;;;1.70;;
67798;SDS011;54596;43.216;27.904;2023-11-18T13:57:33;3.92;;;1.90;;
67798;SDS011;54596;43.216;27.904;2023-11-18T13:59:59;3.63;;;1.63;;
67798;SDS011;54596;43.216;27.904;2023-11-18T14:02:25;4.13;;;1.70;;
67798;SDS011;54596;43.216;27.904;2023-11-18T14:04:54;5.88;;;2.35;;
67798;SDS011;54596;43.216;27.904;2023-11-18T14:07:20;7.72;;;3.20;;
67798;SDS011;54596;43.216;27.904;2023-11-18T14:09:49;5.88;;;1.88;;
67798;SDS011;54596;43.216;27.904;2023-11-18T14:12:17;4.53;;;1.92;;
67798;SDS011;54596;43.216;27.904;2023-11-18T14:14:42;6.57;;;2.80;;
67798;SDS011;54596;43.216;27.904;2023-11-18T14:17:08;6.10;;;2.33;;
67798;SDS011;54596;43.216;27.904;2023-11-18T14:19:35;5.28;;;2.25;;
67798;SDS011;54596;43.216;27.904;2023-11-18T14:22:02;3.85;;;1.63;;
67798;SDS011;54596;43.216;27.904;2023-11-18T14:24:32;6.13;;;2.15;;
67798;SDS011;54596;43.216;27.904;2023-11-18T14:26:59;6.80;;;2.60;;
67798;SDS011;54596;43.216;27.904;2023-11-18T14:29:24;4.43;;;2.10;;
67798;SDS011;54596;43.216;27.904;2023-11-18T14:31:51;7.13;;;2.70;;
67798;SDS011;54596;43.216;27.904;2023-11-18T14:34:17;8.68;;;3.65;;
67798;SDS011;54596;43.216;27.904;2023-11-18T14:36:43;16.83;;;9.45;;
67798;SDS011;54596;43.216;27.904;2023-11-18T14:39:09;10.25;;;5.15;;
67798;SDS011;54596;43.216;27.904;2023-11-18T14:41:37;11.23;;;5.93;;
67798;SDS011;54596;43.216;27.904;2023-11-18T14:44:03;7.38;;;3.03;;
67798;SDS011;54596;43.216;27.904;2023-11-18T14:46:32;8.65;;;3.40;;
67798;SDS011;54596;43.216;27.904;2023-11-18T14:48:58;9.10;;;3.95;;
67798;SDS011;54596;43.216;27.904;2023-11-18T14:51:24;6.40;;;2.30;;
67798;SDS011;54596;43.216;27.904;2023-11-18T14:53:50;6.90;;;3.10;;
67798;SDS011;54596;43.216;27.904;2023-11-18T14:56:16;7.20;;;2.60;;
67798;SDS011;54596;43.216;27.904;2023-11-18T14:58:41;6.78;;;3.20;;
67798;SDS011;54596;43.216;27.904;2023-11-18T15:01:07;7.22;;;3.05;;